• Join FlightAware (Why Join?)
  • Login
  • US Flag 
04:08PM EDT


 

Airport Tracker/Info


-or-


 

Live Flight TrackerFlight Track Log ✈ N355PX ✈ 19-Jun-2013 ✈ KTUL - KHOU

Flight Track Log - Related Links

Times and Time Zones

All times are in EDT time to prevent confusion due to time zone crossing. See the N355PX flight status page for this flight to view local times or setup timezone preferences in your user account.

Time Position Orientation Groundspeed Altitude Reporting Facility
EDT Latitude Longitude Course Direction KTS MPH feet Rate Location/Type
04:12PM 36.1853 -95.7947 200° South 227 261 4,100  Level Kansas City Center
04:13PM 36.1531 -95.7878 170° South 241 277 5,600 2,700 Climbing Kansas City Center
04:14PM 36.0856 -95.8003 189° South 244 281 8,500 2,580 Climbing Kansas City Center
04:15PM 36.0114 -95.8144 189° South 261 300 11,000 2,640 Climbing Kansas City Center
04:16PM 35.9300 -95.8275 187° South 285 328 14,000 2,520 Climbing Kansas City Center
04:17PM 35.4402 -95.9451 200° South  Level FlightAware Approximate
04:17PM 35.8444 -95.8433 189° South 303 349 16,300  Level Kansas City Center
04:18PM 35.7492 -95.8567 186° South 330 380 18,300 2,100 Climbing Kansas City Center
04:19PM 35.6292 -95.8894 193° South 364 419 20,700 2,220 Climbing Kansas City Center
04:20PM 35.5292 -95.9286 198° South 373 429 22,900 2,040 Climbing Kansas City Center
04:21PM 35.4292 -95.9669 197° South 375 432 25,000 1,800 Climbing Kansas City Center
04:22PM 35.3358 -96.0014 197° South 378 435 26,500 1,800 Climbing Fort Worth Center
04:23PM 35.2278 -96.0436 198° South 383 441 28,500 1,980 Climbing Fort Worth Center
04:24PM 35.1219 -96.0861 198° South 394 453 30,500 1,980 Climbing Fort Worth Center
04:25PM 35.0139 -96.1258 197° South 404 465 32,500 1,740 Climbing Fort Worth Center
04:26PM 34.9058 -96.1653 197° South 404 465 34,000 720 Climbing Fort Worth Center
04:27PM 34.7894 -96.2100 198° South 418 481 34,000 960 Level Fort Worth Center
04:28PM 34.6625 -96.2572 197° South 446 513 36,000 2,340 Climbing Fort Worth Center
04:29PM 34.5419 -96.2992 196° South 461 531 38,700 2,340 Climbing Fort Worth Center
04:30PM 34.4297 -96.3461 199° South 449 517 40,700 1,140 Climbing Fort Worth Center
04:31PM 34.3153 -96.3875 197° South 437 503 41,000 120 Climbing Fort Worth Center
04:32PM 34.1925 -96.4342 197° South 444 511 41,000  Level Fort Worth Center
04:33PM 34.0656 -96.4783 196° South 463 533 41,000  Level Fort Worth Center
04:34PM 33.9344 -96.5297 198° South 482 555 41,000 780 Level Fort Worth Center
04:35PM 33.7992 -96.5786 197° South 482 555 42,600 960 Climbing Fort Worth Center
04:36PM 33.6742 -96.6222 196° South 463 533 43,000 180 Climbing Fort Worth Center
04:37PM 33.5472 -96.6708 198° South 468 539 43,000  Level Fort Worth Center
04:38PM 33.4200 -96.7167 197° South 480 552 43,000  Level Fort Worth Center
04:39PM 33.2908 -96.7647 197° South 480 552 43,000  Level Fort Worth Center
04:40PM 33.1617 -96.8128 197° South 486 559 43,000  Level Fort Worth Center
04:41PM 33.0431 -96.8558 197° South 492 566 43,000  Level Fort Worth Center
04:42PM 32.9117 -96.8889 192° South 487 560 43,000  Level Fort Worth Center
04:43PM 32.7614 -96.8947 182° South 492 566 43,000  Level Fort Worth Center
04:44PM 32.6339 -96.8906 178° South 502 578 43,000  Level Fort Worth Center
04:45PM 32.4817 -96.8814 177° South 502 578 43,000  Level Fort Worth Center
04:46PM 32.3583 -96.8747 177° South 502 578 43,000  Level Fort Worth Center
04:47PM 32.2225 -96.8658 177° South 497 572 43,000  Level Fort Worth Center
04:48PM 32.0828 -96.8567 177° South 497 572 43,000  Level Fort Worth Center
04:49PM 31.9428 -96.8528 179° South 503 579 43,000  Level Fort Worth Center
04:50PM 31.8050 -96.8439 177° South 498 573 43,000  Level Fort Worth Center
04:50PM 31.7339 -96.8392 177° South 498 573 43,000  Level Houston Center
04:51PM 31.5928 -96.8189 173° South 503 579 43,000 -120 Level Houston Center
04:53PM 31.4528 -96.7967 172° South 501 577 42,800 -1,320 Descending Houston Center
04:54PM 31.2861 -96.7683 172° South 508 585 40,300 -2,760 Descending Houston Center
04:55PM 31.1450 -96.7464 172° South 504 580 37,200 -3,240 Descending Houston Center
04:56PM 30.9961 -96.7111 169° South 532 612 33,700 -3,660 Descending Houston Center
04:57PM 30.8633 -96.6347 154° Southeast 524 603 29,700 -3,600 Descending Houston Center
04:58PM 30.7403 -96.5547 151° Southeast 504 580 26,300 -3,240 Descending Houston Center
04:59PM 30.6242 -96.4781 150° Southeast 479 551 23,100 -3,300 Descending Houston Center
05:00PM 30.5072 -96.4008 150° Southeast 478 550 19,600 -3,720 Descending Houston Center
05:00PM 30.4233 -96.3483 152° Southeast 474 545 17,000 -4,080 Descending Houston Center
05:01PM 30.3367 -96.2925 151° Southeast 424 488 13,800 -3,660 Descending Houston Center
05:02PM 30.2739 -96.2500 150° Southeast 424 488 11,700 -1,680 Descending Houston Center
05:03PM 30.1817 -96.1936 152° Southeast 375 432 11,000 -420 Descending Houston Center
05:04PM 30.0925 -96.1456 155° Southeast 351 404 10,900 -60 Descending Houston Center
05:05PM 30.0022 -96.0981 156° South 354 407 10,900 -240 Level Houston Center
05:06PM 29.9289 -96.0236 139° Southeast 358 412 10,500 -420 Descending Houston Center